createdAt,value
2022-08-05T14:37:45.342Z,2.67
2022-08-05T14:40:36.145Z,3.83
2022-08-05T14:43:58.883Z,3.63
2022-08-05T14:46:35.339Z,4.80
2022-08-05T14:49:23.680Z,2.90
2022-08-05T14:52:51.896Z,2.92
2022-08-05T14:55:40.201Z,3.08
2022-08-05T14:58:27.985Z,3.42
2022-08-05T15:01:20.094Z,3.25
2022-08-05T15:04:13.556Z,3.20
2022-08-05T15:07:01.448Z,3.28
2022-08-05T15:09:54.179Z,3.08
2022-08-05T15:13:00.574Z,3.05
2022-08-05T15:15:55.648Z,3.05
2022-08-05T15:18:47.506Z,4.65
2022-08-05T15:21:36.984Z,3.90
2022-08-05T15:24:26.494Z,3.92
2022-08-05T15:27:13.974Z,3.53
2022-08-05T15:30:02.416Z,5.30
2022-08-05T15:32:51.079Z,3.40
2022-08-05T15:35:45.511Z,3.92
2022-08-05T15:38:42.139Z,3.10
2022-08-05T15:41:55.684Z,3.10
2022-08-05T15:44:42.091Z,3.13
2022-08-05T15:47:32.760Z,3.20
2022-08-05T15:50:25.198Z,3.58
2022-08-05T15:53:13.742Z,3.20
2022-08-05T15:56:05.646Z,3.95
2022-08-05T15:58:55.172Z,3.15
2022-08-05T16:01:52.885Z,3.65
2022-08-05T16:04:41.334Z,3.45
2022-08-05T16:07:29.782Z,4.10
2022-08-05T16:10:25.230Z,3.55
2022-08-05T16:13:19.324Z,3.08
2022-08-05T16:16:12.214Z,3.70
2022-08-05T16:19:00.075Z,3.38
2022-08-05T16:22:00.637Z,3.35
2022-08-05T16:24:51.189Z,3.63
2022-08-05T16:28:00.670Z,3.25
2022-08-05T16:30:50.493Z,2.72
2022-08-05T16:33:41.515Z,3.33
2022-08-05T16:36:29.663Z,2.85
2022-08-05T16:39:17.306Z,3.10
2022-08-05T16:42:14.562Z,3.58
2022-08-05T16:45:05.997Z,3.58
2022-08-05T16:48:25.560Z,3.33
2022-08-05T16:51:20.809Z,3.38
2022-08-05T16:54:17.530Z,3.75
2022-08-05T16:57:15.123Z,3.67
2022-08-05T17:00:11.443Z,3.38
2022-08-05T17:03:01.854Z,3.60
2022-08-05T17:05:53.985Z,5.93
2022-08-05T17:08:52.003Z,3.58
2022-08-05T17:11:48.478Z,4.15
2022-08-05T17:14:38.342Z,4.25
2022-08-05T17:17:42.169Z,3.63
2022-08-05T17:20:30.647Z,3.60
2022-08-05T17:24:05.943Z,3.85
2022-08-05T17:26:30.383Z,3.53
2022-08-05T17:29:22.563Z,4.15
2022-08-05T17:32:22.107Z,4.15
2022-08-05T17:35:15.634Z,3.95
2022-08-05T17:38:09.052Z,3.78
2022-08-05T17:40:58.643Z,3.95
2022-08-05T17:43:53.159Z,4.25
2022-08-05T17:46:41.089Z,4.10
2022-08-05T17:49:52.095Z,5.57
2022-08-05T17:52:52.698Z,4.07
2022-08-05T17:55:42.494Z,4.20
2022-08-05T17:58:36.491Z,4.20
2022-08-05T18:01:25.216Z,5.78
2022-08-05T18:04:13.295Z,4.32
2022-08-05T18:07:12.248Z,4.15
2022-08-05T18:10:06.535Z,4.57
2022-08-05T18:12:58.143Z,4.80
2022-08-05T18:15:47.243Z,4.78
2022-08-05T18:18:39.845Z,4.93
2022-08-05T18:22:07.301Z,5.53
2022-08-05T18:24:35.695Z,5.13
2022-08-05T18:27:23.765Z,4.90
2022-08-05T18:30:12.456Z,5.65
2022-08-05T18:33:02.682Z,5.60
2022-08-05T18:36:03.849Z,5.45
2022-08-05T18:38:54.966Z,6.32
2022-08-05T18:41:56.551Z,6.90
2022-08-05T18:44:49.317Z,7.25
2022-08-05T18:47:43.546Z,8.80
2022-08-05T18:50:49.825Z,14.27
2022-08-05T18:53:45.797Z,7.65
2022-08-05T18:56:38.174Z,8.48
2022-08-05T18:59:43.410Z,11.73
2022-08-05T19:02:35.817Z,8.55
2022-08-05T19:06:12.178Z,11.52
2022-08-05T19:08:36.039Z,10.43
2022-08-05T19:11:28.611Z,9.10
2022-08-05T19:14:44.790Z,10.05
2022-08-05T19:17:58.998Z,10.55
2022-08-05T19:20:41.367Z,13.80
2022-08-05T19:24:05.656Z,8.00
2022-08-05T19:26:55.040Z,9.80
2022-08-05T19:29:43.258Z,10.75
2022-08-05T19:32:32.097Z,11.50
2022-08-05T19:35:21.755Z,9.80
2022-08-05T19:38:09.745Z,8.43
2022-08-05T19:40:59.881Z,8.13
2022-08-05T19:44:05.476Z,8.50
2022-08-05T19:46:58.430Z,8.48
2022-08-05T19:49:48.056Z,7.43
2022-08-05T19:52:35.974Z,7.78
2022-08-05T19:56:18.414Z,7.13
2022-08-05T19:58:31.624Z,6.95
2022-08-05T20:01:40.847Z,5.93
2022-08-05T20:04:31.651Z,6.28
2022-08-05T20:07:46.538Z,6.53
2022-08-05T20:10:27.684Z,6.88
2022-08-05T20:13:16.680Z,5.88
2022-08-05T20:16:04.609Z,5.43
2022-08-05T20:18:55.430Z,5.25
2022-08-05T20:21:43.682Z,5.55
2022-08-05T20:24:33.227Z,5.72
2022-08-05T20:27:27.059Z,5.28
2022-08-05T20:30:15.075Z,6.00
2022-08-05T20:33:07.213Z,5.32
2022-08-05T20:35:57.534Z,4.82
2022-08-05T20:38:53.534Z,4.97
2022-08-05T20:41:43.793Z,4.85
2022-08-05T20:44:37.786Z,5.28
2022-08-05T20:47:31.787Z,4.75
2022-08-05T20:50:20.730Z,4.50
2022-08-05T20:53:16.324Z,5.30
2022-08-05T20:56:27.674Z,5.43
2022-08-05T20:59:26.283Z,5.35
2022-08-05T21:02:18.099Z,4.72
2022-08-05T21:05:06.688Z,6.28
2022-08-05T21:07:57.268Z,5.22
2022-08-05T21:10:49.388Z,4.70
2022-08-05T21:13:55.673Z,5.07
2022-08-05T21:16:44.435Z,5.65
2022-08-05T21:19:46.551Z,5.57
2022-08-05T21:22:36.176Z,5.18
2022-08-05T21:25:23.893Z,6.55
2022-08-05T21:28:30.690Z,5.82
2022-08-05T21:31:18.436Z,6.20
2022-08-05T21:34:06.431Z,5.32
2022-08-05T21:36:55.151Z,5.55
2022-08-05T21:39:43.109Z,5.07
2022-08-05T21:42:44.577Z,5.40
2022-08-05T21:45:51.825Z,6.60
2022-08-05T21:48:42.260Z,5.00
2022-08-05T21:52:21.547Z,6.13
2022-08-05T21:54:40.509Z,5.25
2022-08-05T21:57:31.946Z,5.85
2022-08-05T22:00:19.925Z,5.32
2022-08-05T22:03:15.172Z,5.30
2022-08-05T22:06:03.406Z,5.35
2022-08-05T22:08:53.635Z,5.22
2022-08-05T22:11:43.072Z,5.78
2022-08-05T22:14:37.872Z,5.85
2022-08-05T22:17:26.776Z,6.15
2022-08-05T22:20:20.504Z,13.25
2022-08-05T22:24:02.678Z,6.60
2022-08-05T22:26:56.100Z,6.60
2022-08-05T22:29:45.913Z,6.70
2022-08-05T22:32:35.092Z,6.45
2022-08-05T22:35:24.581Z,7.03
2022-08-05T22:38:12.787Z,7.22
2022-08-05T22:41:02.667Z,6.72
2022-08-05T22:43:59.358Z,7.07
2022-08-05T22:46:47.212Z,6.90
2022-08-05T22:50:17.629Z,6.65
2022-08-05T22:52:44.978Z,6.85
2022-08-05T22:55:37.203Z,7.07
2022-08-05T22:58:43.744Z,6.57
2022-08-05T23:01:50.737Z,6.07
2022-08-05T23:04:39.380Z,6.50
2022-08-05T23:07:27.789Z,6.15
2022-08-05T23:10:20.949Z,6.78
2022-08-05T23:13:11.423Z,7.10
2022-08-05T23:15:59.070Z,6.72
2022-08-05T23:18:47.417Z,6.88
2022-08-05T23:21:42.805Z,6.80
2022-08-05T23:24:36.743Z,7.57
2022-08-05T23:27:28.939Z,5.93
2022-08-05T23:30:19.188Z,7.05
2022-08-05T23:33:15.949Z,7.32
2022-08-05T23:36:07.028Z,6.45
2022-08-05T23:38:58.302Z,7.78
2022-08-05T23:41:48.512Z,7.70
2022-08-05T23:44:37.647Z,7.53
2022-08-05T23:47:33.561Z,7.43
2022-08-05T23:50:21.269Z,6.72
2022-08-05T23:53:22.419Z,6.85
2022-08-05T23:56:10.581Z,6.88
2022-08-05T23:58:58.696Z,6.72
